createdAt,value
2022-10-20T00:01:15.468Z,15.82
2022-10-20T00:03:42.747Z,15.52
2022-10-20T00:06:14.549Z,14.93
2022-10-20T00:08:42.813Z,15.32
2022-10-20T00:11:11.014Z,14.65
2022-10-20T00:13:38.803Z,17.50
2022-10-20T00:16:05.965Z,15.27
2022-10-20T00:18:32.707Z,15.15
2022-10-20T00:20:59.566Z,16.00
2022-10-20T00:23:26.561Z,16.17
2022-10-20T00:26:03.413Z,16.90
2022-10-20T00:28:30.488Z,15.50
2022-10-20T00:30:57.614Z,15.40
2022-10-20T00:33:24.987Z,15.25
2022-10-20T00:35:52.163Z,14.80
2022-10-20T00:40:50.685Z,14.55
2022-10-20T00:43:17.824Z,14.45
2022-10-20T00:45:57.369Z,13.73
2022-10-20T00:48:29.834Z,14.60
2022-10-20T00:50:57.125Z,14.55
2022-10-20T00:53:28.061Z,13.70
2022-10-20T00:55:57.844Z,14.55
2022-10-20T00:58:25.723Z,14.10
2022-10-20T01:00:56.481Z,14.23
2022-10-20T01:03:39.615Z,13.37
2022-10-20T01:06:06.675Z,14.93
2022-10-20T01:08:33.611Z,14.15
2022-10-20T01:11:11.289Z,15.15
2022-10-20T01:14:08.483Z,13.05
2022-10-20T01:17:08.660Z,14.13
2022-10-20T01:19:48.070Z,16.20
2022-10-20T01:22:44.628Z,12.38
2022-10-20T01:25:19.020Z,14.88
2022-10-20T01:27:58.783Z,13.98
2022-10-20T01:30:25.691Z,14.07
2022-10-20T01:33:07.023Z,14.68
2022-10-20T01:35:45.908Z,13.60
2022-10-20T01:38:27.812Z,13.73
2022-10-20T01:41:01.940Z,13.70
2022-10-20T01:43:33.119Z,12.93
2022-10-20T01:46:01.360Z,12.35
2022-10-20T01:48:32.591Z,12.18
2022-10-20T01:51:01.588Z,12.65
2022-10-20T01:53:28.657Z,12.77
2022-10-20T01:55:57.554Z,13.48
2022-10-20T01:58:48.411Z,12.25
2022-10-20T02:01:28.049Z,12.40
2022-10-20T02:03:58.271Z,12.73
2022-10-20T02:06:58.087Z,12.13
2022-10-20T02:09:38.300Z,13.35
2022-10-20T02:12:09.717Z,12.80
2022-10-20T02:14:38.459Z,11.77
2022-10-20T02:17:10.773Z,12.23
2022-10-20T02:19:42.397Z,12.35
2022-10-20T02:24:38.921Z,12.02
2022-10-20T02:27:11.329Z,12.20
2022-10-20T02:29:55.508Z,11.30
2022-10-20T02:32:23.991Z,11.30
2022-10-20T02:34:50.775Z,12.23
2022-10-20T02:42:17.233Z,12.50
2022-10-20T02:44:44.102Z,11.27
2022-10-20T02:47:10.810Z,11.38
2022-10-20T02:49:37.520Z,10.85
2022-10-20T02:52:04.296Z,11.77
2022-10-20T02:54:30.973Z,10.38
2022-10-20T02:56:57.787Z,12.25
2022-10-20T02:59:24.561Z,11.18
2022-10-20T03:01:52.348Z,11.48
2022-10-20T03:04:19.211Z,11.60
2022-10-20T03:06:46.069Z,9.40
2022-10-20T03:09:13.113Z,8.23
2022-10-20T03:11:39.812Z,9.07
2022-10-20T03:14:06.541Z,9.80
2022-10-20T03:16:33.243Z,8.50
2022-10-20T03:19:03.456Z,8.13
2022-10-20T03:21:33.089Z,9.18
2022-10-20T03:23:59.845Z,8.20
2022-10-20T03:26:26.603Z,8.98
2022-10-20T03:28:53.333Z,8.90
2022-10-20T03:31:20.077Z,7.95
2022-10-20T03:33:46.744Z,7.93
2022-10-20T03:36:13.430Z,8.02
2022-10-20T03:38:43.273Z,9.23
2022-10-20T03:41:10.907Z,10.05
2022-10-20T03:43:40.062Z,8.63
2022-10-20T03:46:09.755Z,10.00
2022-10-20T03:48:37.439Z,8.15
2022-10-20T03:51:05.089Z,10.30
2022-10-20T03:53:32.489Z,8.07
2022-10-20T03:55:59.226Z,8.48
2022-10-20T03:58:25.965Z,9.10
2022-10-20T04:00:52.961Z,7.70
2022-10-20T04:03:19.659Z,9.68
2022-10-20T04:05:46.355Z,8.10
2022-10-20T04:10:39.882Z,7.13
2022-10-20T04:13:07.937Z,8.38
2022-10-20T04:15:35.923Z,9.00
2022-10-20T04:18:02.623Z,8.07
2022-10-20T04:20:29.361Z,6.95
2022-10-20T04:22:56.054Z,8.38
2022-10-20T04:25:22.743Z,7.90
2022-10-20T04:27:49.529Z,7.55
2022-10-20T04:30:16.339Z,7.25
2022-10-20T04:32:44.506Z,7.53
2022-10-20T04:35:11.295Z,7.25
2022-10-20T04:37:38.424Z,7.53
2022-10-20T04:40:05.788Z,8.02
2022-10-20T04:42:32.471Z,7.20
2022-10-20T04:44:59.145Z,7.88
2022-10-20T04:47:25.845Z,7.20
2022-10-20T04:49:52.528Z,7.15
2022-10-20T04:52:20.749Z,6.50
2022-10-20T04:54:47.581Z,6.22
2022-10-20T04:57:14.354Z,6.60
2022-10-20T04:59:41.105Z,6.72
2022-10-20T05:02:08.272Z,7.32
2022-10-20T05:04:35.026Z,6.43
2022-10-20T05:07:01.845Z,6.90
2022-10-20T05:09:29.075Z,5.93
2022-10-20T05:11:55.737Z,5.97
2022-10-20T05:14:22.558Z,6.35
2022-10-20T05:16:49.251Z,5.68
2022-10-20T05:19:16.162Z,6.90
2022-10-20T05:21:43.114Z,6.88
2022-10-20T05:24:19.787Z,6.28
2022-10-20T05:26:48.236Z,5.90
2022-10-20T05:29:16.161Z,6.78
2022-10-20T05:31:44.636Z,6.00
2022-10-20T05:34:14.393Z,6.93
2022-10-20T05:36:41.129Z,5.40
2022-10-20T05:39:07.866Z,6.38
2022-10-20T05:41:38.006Z,6.63
2022-10-20T05:44:08.876Z,6.35
2022-10-20T05:46:42.926Z,7.40
2022-10-20T05:49:15.460Z,7.68
2022-10-20T05:51:43.163Z,7.50
2022-10-20T05:54:12.715Z,7.75
2022-10-20T05:56:39.508Z,7.93
2022-10-20T05:59:06.233Z,7.03
2022-10-20T06:01:47.479Z,6.28
2022-10-20T06:04:28.099Z,8.77
2022-10-20T06:06:55.950Z,6.93
2022-10-20T06:09:24.325Z,8.05
2022-10-20T06:11:52.095Z,8.50
2022-10-20T06:14:19.260Z,7.45
2022-10-20T06:16:46.140Z,8.55
2022-10-20T06:19:12.857Z,8.02
2022-10-20T06:21:39.642Z,9.30
2022-10-20T06:24:07.393Z,7.78
2022-10-20T06:26:38.345Z,8.85
2022-10-20T06:29:07.806Z,8.13
2022-10-20T06:31:38.974Z,7.20
2022-10-20T06:34:08.150Z,8.15
2022-10-20T06:36:36.825Z,7.78
2022-10-20T06:39:05.942Z,7.43
2022-10-20T06:41:33.579Z,7.40
2022-10-20T06:44:00.547Z,6.18
2022-10-20T06:46:32.114Z,7.55
2022-10-20T06:51:30.642Z,7.47
2022-10-20T06:53:58.934Z,7.80
2022-10-20T06:56:28.906Z,7.15
2022-10-20T06:58:57.287Z,7.60
2022-10-20T07:01:32.697Z,8.35
2022-10-20T07:04:02.615Z,7.63
2022-10-20T07:06:35.058Z,7.78
2022-10-20T07:09:08.214Z,6.25
2022-10-20T07:11:35.558Z,6.93
2022-10-20T07:14:03.027Z,5.65
2022-10-20T07:16:32.245Z,6.90
2022-10-20T07:18:59.702Z,5.90
2022-10-20T07:21:32.393Z,6.47
2022-10-20T07:24:03.745Z,6.85
2022-10-20T07:26:33.766Z,7.60
2022-10-20T07:29:01.589Z,8.60
2022-10-20T07:31:46.285Z,8.02
2022-10-20T07:34:30.736Z,7.80
2022-10-20T07:36:58.171Z,7.85
2022-10-20T07:39:25.570Z,6.78
2022-10-20T07:41:52.607Z,7.15
2022-10-20T07:44:20.038Z,6.88
2022-10-20T07:46:46.849Z,8.00
2022-10-20T07:52:00.311Z,6.53
2022-10-20T07:54:27.042Z,5.47
2022-10-20T07:56:53.741Z,5.93
2022-10-20T07:59:20.573Z,5.88
2022-10-20T08:01:47.723Z,6.55
2022-10-20T08:04:14.488Z,6.10
2022-10-20T08:06:41.386Z,6.03
2022-10-20T08:09:08.468Z,4.93
2022-10-20T08:11:35.903Z,5.68
2022-10-20T08:14:02.850Z,5.38
2022-10-20T08:16:29.644Z,5.68
2022-10-20T08:19:11.805Z,4.43
2022-10-20T08:21:38.511Z,4.50
2022-10-20T08:24:05.519Z,5.15
2022-10-20T08:26:32.291Z,4.50
2022-10-20T08:28:59.098Z,4.30
2022-10-20T08:31:25.822Z,4.47
2022-10-20T08:33:53.328Z,3.50
2022-10-20T08:36:21.041Z,2.90
2022-10-20T08:38:48.389Z,2.97
2022-10-20T08:41:24.857Z,3.03
2022-10-20T08:43:54.833Z,3.00
2022-10-20T08:46:29.943Z,3.20
2022-10-20T08:48:57.268Z,3.25
2022-10-20T08:51:28.130Z,2.60
2022-10-20T08:53:58.522Z,2.78
2022-10-20T08:56:29.457Z,3.03
2022-10-20T08:58:56.812Z,2.20
2022-10-20T09:01:33.039Z,2.90
2022-10-20T09:04:32.576Z,2.42
2022-10-20T09:07:05.751Z,2.47
2022-10-20T09:09:33.669Z,2.40
2022-10-20T09:12:06.960Z,3.70
2022-10-20T09:14:37.133Z,2.85
2022-10-20T09:17:07.915Z,3.08
2022-10-20T09:19:36.409Z,2.58
2022-10-20T09:22:06.078Z,2.78
2022-10-20T09:24:35.709Z,2.80
2022-10-20T09:27:34.429Z,2.90
2022-10-20T09:30:25.908Z,2.40
2022-10-20T09:32:52.850Z,2.50
2022-10-20T09:35:19.647Z,2.20
2022-10-20T09:37:53.271Z,3.28
2022-10-20T09:40:20.396Z,2.97
2022-10-20T09:42:54.481Z,3.50
2022-10-20T09:45:28.763Z,3.75
2022-10-20T09:48:32.609Z,3.97
2022-10-20T09:51:00.223Z,3.35
2022-10-20T09:53:34.285Z,3.20
2022-10-20T09:56:01.625Z,3.42
2022-10-20T09:58:33.646Z,4.13
2022-10-20T10:01:11.861Z,3.72
2022-10-20T10:03:51.593Z,4.47
2022-10-20T10:06:33.003Z,3.28
2022-10-20T10:09:01.747Z,3.72
2022-10-20T10:11:36.775Z,3.17
2022-10-20T10:14:04.021Z,3.22
2022-10-20T10:16:41.659Z,3.20
2022-10-20T10:19:17.312Z,3.30
2022-10-20T10:21:47.257Z,4.32
2022-10-20T10:24:46.416Z,3.58
2022-10-20T10:27:23.823Z,3.80
2022-10-20T10:29:50.788Z,4.30
2022-10-20T10:32:28.602Z,3.70
2022-10-20T10:35:19.924Z,3.83
2022-10-20T10:37:47.582Z,4.00
2022-10-20T10:40:18.196Z,3.42
2022-10-20T10:42:51.465Z,3.97
2022-10-20T10:45:29.913Z,4.35
2022-10-20T10:48:14.736Z,3.88
2022-10-20T10:50:53.999Z,3.42
2022-10-20T10:53:26.953Z,4.65
2022-10-20T10:58:57.039Z,4.10
2022-10-20T11:01:58.863Z,4.45
2022-10-20T11:07:24.198Z,4.50
2022-10-20T11:10:18.145Z,4.10
2022-10-20T11:12:44.798Z,4.13
2022-10-20T11:15:35.534Z,3.60
2022-10-20T11:18:24.103Z,3.92
2022-10-20T11:21:28.103Z,3.80
2022-10-20T11:24:12.653Z,3.65
2022-10-20T11:26:43.078Z,4.10
2022-10-20T11:29:33.561Z,3.58
2022-10-20T11:32:09.794Z,5.80
2022-10-20T11:34:52.099Z,4.78
2022-10-20T11:37:26.042Z,4.22
2022-10-20T11:40:18.406Z,4.55
2022-10-20T11:42:58.035Z,6.10
2022-10-20T11:45:24.730Z,5.43
2022-10-20T11:48:02.823Z,6.55
2022-10-20T11:50:30.635Z,7.15
2022-10-20T11:53:23.397Z,6.25
2022-10-20T11:56:09.079Z,5.35
2022-10-20T11:58:52.310Z,5.90
2022-10-20T12:01:36.424Z,4.80
2022-10-20T12:04:24.995Z,5.18
2022-10-20T12:07:09.683Z,5.50
2022-10-20T12:10:27.837Z,5.57
2022-10-20T12:13:15.553Z,7.05
2022-10-20T12:15:49.907Z,7.13
2022-10-20T12:18:32.033Z,7.53
2022-10-20T12:21:10.507Z,6.65
2022-10-20T12:23:45.024Z,7.93
2022-10-20T12:26:30.173Z,6.50
2022-10-20T12:28:58.069Z,4.93
2022-10-20T12:31:25.752Z,4.97
2022-10-20T12:33:55.165Z,4.10
2022-10-20T12:36:39.363Z,4.30
2022-10-20T12:39:21.836Z,4.25
2022-10-20T12:41:58.446Z,4.07
2022-10-20T12:44:29.009Z,4.70
2022-10-20T12:47:06.252Z,4.15
2022-10-20T12:49:36.483Z,4.22
2022-10-20T12:52:07.337Z,3.85
2022-10-20T12:54:39.582Z,4.20
2022-10-20T12:57:31.142Z,3.70
2022-10-20T13:02:24.667Z,4.32
2022-10-20T13:05:06.679Z,4.15
2022-10-20T13:07:48.478Z,3.88
2022-10-20T13:10:27.581Z,4.30
2022-10-20T13:13:03.837Z,3.50
2022-10-20T13:15:37.034Z,3.70
2022-10-20T13:18:21.364Z,3.92
2022-10-20T13:21:00.106Z,3.53
2022-10-20T13:23:34.298Z,4.68
2022-10-20T13:26:26.574Z,3.28
2022-10-20T13:29:10.713Z,3.78
2022-10-20T13:31:52.997Z,4.13
2022-10-20T13:34:39.318Z,3.78
2022-10-20T13:37:06.097Z,4.57
2022-10-20T13:39:49.936Z,5.05
2022-10-20T13:42:17.007Z,4.80
2022-10-20T13:45:23.377Z,4.40
2022-10-20T13:48:01.021Z,4.72
2022-10-20T13:50:34.434Z,4.47
2022-10-20T13:53:13.908Z,4.78
2022-10-20T13:56:10.760Z,4.78
2022-10-20T13:58:37.522Z,4.60
2022-10-20T14:01:16.984Z,4.28
2022-10-20T14:03:45.871Z,5.30
2022-10-20T14:06:31.435Z,5.35
2022-10-20T14:09:08.503Z,4.80
2022-10-20T14:11:35.279Z,4.97
2022-10-20T14:14:02.635Z,5.40
2022-10-20T14:16:31.557Z,4.93
2022-10-20T14:19:13.060Z,4.90
2022-10-20T14:21:50.748Z,5.15
2022-10-20T14:24:32.745Z,4.78
2022-10-20T14:27:01.845Z,4.82
2022-10-20T14:29:32.394Z,5.15
2022-10-20T14:32:00.078Z,4.95
2022-10-20T14:34:34.042Z,5.03
2022-10-20T14:37:01.304Z,5.10
2022-10-20T14:39:38.039Z,4.50
2022-10-20T14:42:20.385Z,5.80
2022-10-20T14:44:49.323Z,5.43
2022-10-20T14:47:17.483Z,5.85
2022-10-20T14:49:52.343Z,6.63
2022-10-20T14:52:21.691Z,7.43
2022-10-20T14:54:52.810Z,8.40
2022-10-20T14:57:19.596Z,7.53
2022-10-20T15:00:04.250Z,7.53
2022-10-20T15:02:42.642Z,8.00
2022-10-20T15:05:32.597Z,7.68
2022-10-20T15:08:18.960Z,8.35
2022-10-20T15:10:46.059Z,7.95
2022-10-20T15:13:27.736Z,7.22
2022-10-20T15:15:56.435Z,6.40
2022-10-20T15:18:24.789Z,6.85
2022-10-20T15:20:53.254Z,7.00
2022-10-20T15:23:22.750Z,6.70
2022-10-20T15:26:03.100Z,6.60
2022-10-20T15:28:46.266Z,6.28
2022-10-20T15:31:12.918Z,6.32
2022-10-20T15:33:42.857Z,8.27
2022-10-20T15:36:11.424Z,7.25
2022-10-20T15:38:38.149Z,5.75
2022-10-20T15:41:05.001Z,6.22
2022-10-20T15:43:32.313Z,6.88
2022-10-20T15:45:59.123Z,6.35
2022-10-20T15:48:26.242Z,6.35
2022-10-20T15:50:54.184Z,5.88
2022-10-20T15:53:21.089Z,6.55
2022-10-20T15:55:48.060Z,8.27
2022-10-20T15:58:14.887Z,7.95
2022-10-20T16:00:41.715Z,6.68
2022-10-20T16:03:17.120Z,8.63
2022-10-20T16:05:44.463Z,9.40
2022-10-20T16:08:11.242Z,7.45
2022-10-20T16:10:39.000Z,8.05
2022-10-20T16:13:06.150Z,10.30
2022-10-20T16:15:32.925Z,12.77
2022-10-20T16:17:59.684Z,10.35
2022-10-20T16:20:26.531Z,7.53
2022-10-20T16:22:53.323Z,8.35
2022-10-20T16:25:20.074Z,9.52
2022-10-20T16:27:46.816Z,8.77
2022-10-20T16:30:13.706Z,7.47
2022-10-20T16:32:40.768Z,8.57
2022-10-20T16:35:07.963Z,7.70
2022-10-20T16:37:34.900Z,11.70
2022-10-20T16:40:02.182Z,6.82
2022-10-20T16:42:30.284Z,8.07
2022-10-20T16:44:57.436Z,7.20
2022-10-20T16:47:25.821Z,8.00
2022-10-20T16:49:52.634Z,9.82
2022-10-20T16:52:19.804Z,11.18
2022-10-20T16:54:46.547Z,11.10
2022-10-20T16:57:13.891Z,10.38
2022-10-20T16:59:42.467Z,14.18
2022-10-20T17:02:11.518Z,11.80
2022-10-20T17:04:38.277Z,9.30
2022-10-20T17:07:05.903Z,8.70
2022-10-20T17:09:32.648Z,8.57
2022-10-20T17:11:59.833Z,8.15
2022-10-20T17:14:26.514Z,8.23
2022-10-20T17:16:53.246Z,8.00
2022-10-20T17:19:19.986Z,10.25
2022-10-20T17:21:46.764Z,8.73
2022-10-20T17:24:14.317Z,8.63
2022-10-20T17:26:41.974Z,9.55
2022-10-20T17:29:09.660Z,9.27
2022-10-20T17:31:37.726Z,9.43
2022-10-20T17:34:05.106Z,8.18
2022-10-20T17:36:32.526Z,17.00
2022-10-20T17:39:02.662Z,17.80
2022-10-20T17:41:30.032Z,12.15
2022-10-20T17:43:59.833Z,12.45
2022-10-20T17:46:26.880Z,14.40
2022-10-20T17:48:54.082Z,8.95
2022-10-20T17:51:27.771Z,9.52
2022-10-20T17:53:58.044Z,9.23
2022-10-20T17:56:31.282Z,8.80
2022-10-20T17:58:59.798Z,10.15
2022-10-20T18:01:30.515Z,9.93
2022-10-20T18:04:00.276Z,9.53
2022-10-20T18:06:33.527Z,11.00
2022-10-20T18:09:06.400Z,9.02
2022-10-20T18:11:34.674Z,12.65
2022-10-20T18:14:01.717Z,24.10
2022-10-20T18:16:31.658Z,22.50
2022-10-20T18:18:59.374Z,15.77
2022-10-20T18:21:27.823Z,11.30
2022-10-20T18:24:02.089Z,12.77
2022-10-20T18:26:30.166Z,10.80
2022-10-20T18:28:59.316Z,10.10
2022-10-20T18:31:28.944Z,10.82
2022-10-20T18:34:02.667Z,10.00
2022-10-20T18:36:33.420Z,11.45
2022-10-20T18:39:00.892Z,11.18
2022-10-20T18:41:30.442Z,13.25
2022-10-20T18:44:01.486Z,12.05
2022-10-20T18:46:31.209Z,11.68
2022-10-20T18:48:59.025Z,10.73
2022-10-20T18:51:26.687Z,11.52
2022-10-20T18:53:55.629Z,10.57
2022-10-20T18:56:24.177Z,10.60
2022-10-20T18:58:53.163Z,10.52
2022-10-20T19:01:22.774Z,8.93
2022-10-20T19:03:52.687Z,12.40
2022-10-20T19:06:21.942Z,11.95
2022-10-20T19:08:53.293Z,10.13
2022-10-20T19:11:22.283Z,11.02
2022-10-20T19:13:49.893Z,10.23
2022-10-20T19:16:20.031Z,11.05
2022-10-20T19:18:48.791Z,10.60
2022-10-20T19:21:16.106Z,11.68
2022-10-20T19:23:46.906Z,9.75
2022-10-20T19:26:36.150Z,10.43
2022-10-20T19:29:10.498Z,9.20
2022-10-20T19:31:43.856Z,8.48
2022-10-20T19:34:20.916Z,9.85
2022-10-20T19:36:48.307Z,9.40
2022-10-20T19:39:19.090Z,10.60
2022-10-20T19:41:46.442Z,8.80
2022-10-20T19:44:15.416Z,9.13
2022-10-20T19:46:46.700Z,10.77
2022-10-20T19:49:14.347Z,11.48
2022-10-20T19:51:42.087Z,14.13
2022-10-20T19:54:09.609Z,10.30
2022-10-20T19:56:36.852Z,10.90
2022-10-20T19:59:04.979Z,9.32
2022-10-20T20:01:32.654Z,11.13
2022-10-20T20:03:59.873Z,14.10
2022-10-20T20:06:28.443Z,10.75
2022-10-20T20:08:59.332Z,11.52
2022-10-20T20:11:30.732Z,9.85
2022-10-20T20:14:04.540Z,11.45
2022-10-20T20:16:31.605Z,9.18
2022-10-20T20:18:58.644Z,9.10
2022-10-20T20:21:26.685Z,8.45
2022-10-20T20:23:59.332Z,8.98
2022-10-20T20:26:28.389Z,7.75
2022-10-20T20:28:56.103Z,7.72
2022-10-20T20:31:23.841Z,7.60
2022-10-20T20:33:50.889Z,9.50
2022-10-20T20:36:17.635Z,10.05
2022-10-20T20:38:44.800Z,9.70
2022-10-20T20:41:14.281Z,8.25
2022-10-20T20:43:41.475Z,7.10
2022-10-20T20:46:12.140Z,7.10
2022-10-20T20:48:39.218Z,6.63
2022-10-20T20:51:06.522Z,7.93
2022-10-20T20:53:38.071Z,7.50
2022-10-20T20:58:33.369Z,6.07
2022-10-20T21:01:07.833Z,5.18
2022-10-20T21:03:35.707Z,6.25
2022-10-20T21:06:07.656Z,7.22
2022-10-20T21:08:36.023Z,6.25
2022-10-20T21:11:06.770Z,7.10
2022-10-20T21:13:34.173Z,6.70
2022-10-20T21:16:14.054Z,5.10
2022-10-20T21:18:43.069Z,6.05
2022-10-20T21:21:12.730Z,7.32
2022-10-20T21:23:40.492Z,7.95
2022-10-20T21:26:08.478Z,7.80
2022-10-20T21:28:35.589Z,6.45
2022-10-20T21:31:07.106Z,7.72
2022-10-20T21:36:06.195Z,7.55
2022-10-20T21:38:35.583Z,7.57
2022-10-20T21:41:13.041Z,6.65
2022-10-20T21:43:43.970Z,7.45
2022-10-20T21:46:15.131Z,6.05
2022-10-20T21:48:43.438Z,5.47
2022-10-20T21:51:14.432Z,6.22
2022-10-20T21:53:41.139Z,5.78
2022-10-20T21:56:08.771Z,5.97
2022-10-20T21:58:36.352Z,5.22
2022-10-20T22:01:13.602Z,5.20
2022-10-20T22:03:41.075Z,5.55
2022-10-20T22:06:09.781Z,5.85
2022-10-20T22:08:41.925Z,6.20
2022-10-20T22:11:15.737Z,6.13
2022-10-20T22:13:43.005Z,5.75
2022-10-20T22:16:13.509Z,6.10
2022-10-20T22:18:40.220Z,6.70
2022-10-20T22:21:13.520Z,5.75
2022-10-20T22:23:41.263Z,6.00
2022-10-20T22:26:08.387Z,7.18
2022-10-20T22:28:35.321Z,4.97
2022-10-20T22:31:02.302Z,5.20
2022-10-20T22:33:29.164Z,4.93
2022-10-20T22:35:55.950Z,6.18
2022-10-20T22:38:22.711Z,5.40
2022-10-20T22:40:49.574Z,5.53
2022-10-20T22:43:16.323Z,6.55
2022-10-20T22:45:43.228Z,4.40
2022-10-20T22:48:09.923Z,6.07
2022-10-20T22:50:36.658Z,4.22
2022-10-20T22:53:03.516Z,4.50
2022-10-20T22:55:30.238Z,5.13
2022-10-20T23:00:28.658Z,4.00
2022-10-20T23:02:55.681Z,4.15
2022-10-20T23:05:22.553Z,3.90
2022-10-20T23:07:49.266Z,4.50
2022-10-20T23:10:16.199Z,3.47
2022-10-20T23:12:43.240Z,3.80
2022-10-20T23:15:10.391Z,4.05
2022-10-20T23:17:37.908Z,3.55
2022-10-20T23:20:05.628Z,4.13
2022-10-20T23:22:32.398Z,3.53
2022-10-20T23:24:59.058Z,3.38
2022-10-20T23:27:25.739Z,3.45
2022-10-20T23:29:52.476Z,3.63
2022-10-20T23:32:19.191Z,3.80
2022-10-20T23:34:45.905Z,3.53
2022-10-20T23:37:12.713Z,4.18
2022-10-20T23:39:39.383Z,3.83
2022-10-20T23:42:07.330Z,2.75
2022-10-20T23:44:34.462Z,2.90
2022-10-20T23:47:01.208Z,2.95
2022-10-20T23:49:27.914Z,3.17
2022-10-20T23:51:54.662Z,3.88
2022-10-20T23:54:21.542Z,3.85
2022-10-20T23:56:48.315Z,3.10
2022-10-20T23:59:15.070Z,3.05
